Blocher, Indiana
Current Conditions -  °F | °C
As of 5:12 PM on Sunday 21 Dec 2014 (Local Time) from KIMS Reporting Station
Clear Clear  
Wind Chill: 36°   Ceiling: Unl
Heat Index: 36°   Visibility: 10mi
Dew Point: 27°   Wind: 3mph
Humidity: 70%   Direction: 80°E
Pressure: 30.16"   Gusts: NA
Location:  38.6522°N, 85.6465°W
Report Text: KIMS 212212Z AUTO 08003KT 10SM CLR 02/M03 A3016 RMK AO1
Loading
Personal Weather Stations






























Interactive Weather Map New forecast layout! Learn more

10-Day Weather Forecast

Advertisements
Track Severe Weather on mobile